createdAt,value
2022-08-17T00:00:34.286Z,15.20
2022-08-17T00:03:17.895Z,15.20
2022-08-17T00:05:52.611Z,15.20
2022-08-17T00:08:23.328Z,15.20
2022-08-17T00:10:51.789Z,15.20
2022-08-17T00:13:25.816Z,15.10
2022-08-17T00:15:57.887Z,15.10
2022-08-17T00:19:01.979Z,15.10
2022-08-17T00:21:13.163Z,15.10
2022-08-17T00:23:47.698Z,15.00
2022-08-17T00:26:16.636Z,15.00
2022-08-17T00:29:04.278Z,15.10
2022-08-17T00:31:31.933Z,15.20
2022-08-17T00:33:59.391Z,15.20
2022-08-17T00:36:26.365Z,15.20
2022-08-17T00:38:56.326Z,15.20
2022-08-17T00:41:26.665Z,15.30
2022-08-17T00:44:02.328Z,15.20
2022-08-17T00:46:36.461Z,15.10
2022-08-17T00:49:04.917Z,15.00
2022-08-17T00:51:52.753Z,14.90
2022-08-17T00:54:33.666Z,14.80
2022-08-17T00:57:18.530Z,14.70
2022-08-17T01:00:01.792Z,14.60
2022-08-17T01:02:35.029Z,14.60
2022-08-17T01:05:12.616Z,14.60
2022-08-17T01:07:40.095Z,14.50
2022-08-17T01:10:58.521Z,14.40
2022-08-17T01:12:56.868Z,14.30
2022-08-17T01:15:23.834Z,14.30
2022-08-17T01:17:50.685Z,14.20
2022-08-17T01:20:17.594Z,14.30
2022-08-17T01:22:53.667Z,14.30
2022-08-17T01:25:21.392Z,14.20
2022-08-17T01:27:49.340Z,14.30
2022-08-17T01:30:58.722Z,14.30
2022-08-17T01:33:04.396Z,14.30
2022-08-17T01:35:31.913Z,14.20
2022-08-17T01:37:58.862Z,14.20
2022-08-17T01:40:39.013Z,14.30
2022-08-17T01:43:12.221Z,14.20
2022-08-17T01:45:44.215Z,14.10
2022-08-17T01:48:12.438Z,14.10
2022-08-17T01:50:42.027Z,14.10
2022-08-17T01:53:25.657Z,14.00
2022-08-17T01:55:55.512Z,14.00
2022-08-17T01:58:22.911Z,14.00
2022-08-17T02:01:00.519Z,13.90
2022-08-17T02:03:29.651Z,13.90
2022-08-17T02:05:56.973Z,13.90
2022-08-17T02:08:39.268Z,13.80
2022-08-17T02:11:16.990Z,13.80
2022-08-17T02:13:45.807Z,13.90
2022-08-17T02:16:13.084Z,13.90
2022-08-17T02:18:40.132Z,13.80
2022-08-17T02:21:08.154Z,13.80
2022-08-17T02:23:39.081Z,13.80
2022-08-17T02:26:06.659Z,13.70
2022-08-17T02:28:33.986Z,13.60
2022-08-17T02:31:10.296Z,13.60
2022-08-17T02:33:42.888Z,13.60
2022-08-17T02:36:13.038Z,13.60
2022-08-17T02:38:40.906Z,13.70
2022-08-17T02:41:08.529Z,13.60
2022-08-17T02:43:35.539Z,13.50
2022-08-17T02:46:02.497Z,13.50
2022-08-17T02:48:31.683Z,13.40
2022-08-17T02:51:00.031Z,13.40
2022-08-17T02:53:27.740Z,13.30
2022-08-17T02:56:02.698Z,13.30
2022-08-17T02:58:35.094Z,13.30
2022-08-17T03:01:06.033Z,13.30
2022-08-17T03:03:32.982Z,13.40
2022-08-17T03:06:00.152Z,13.50
2022-08-17T03:08:27.305Z,13.50
2022-08-17T03:10:54.386Z,13.60
2022-08-17T03:13:21.675Z,13.50
2022-08-17T03:15:49.713Z,13.60
2022-08-17T03:18:24.841Z,13.50
2022-08-17T03:20:58.307Z,13.60
2022-08-17T03:23:26.111Z,13.60
2022-08-17T03:25:55.188Z,13.50
2022-08-17T03:28:23.539Z,13.40
2022-08-17T03:30:51.680Z,13.40
2022-08-17T03:33:19.439Z,13.30
2022-08-17T03:35:46.987Z,13.30
2022-08-17T03:38:15.371Z,13.30
2022-08-17T03:40:56.236Z,13.40
2022-08-17T03:43:30.943Z,13.50
2022-08-17T03:46:27.038Z,13.50
2022-08-17T03:49:19.767Z,13.40
2022-08-17T03:52:05.354Z,13.50
2022-08-17T03:54:50.676Z,13.50
2022-08-17T03:57:18.551Z,13.40
2022-08-17T03:59:45.713Z,13.40
2022-08-17T04:02:24.307Z,13.40
2022-08-17T04:04:52.337Z,13.30
2022-08-17T04:07:21.684Z,13.30
2022-08-17T04:09:48.942Z,13.30
2022-08-17T04:12:18.505Z,13.40
2022-08-17T04:14:53.270Z,13.50
2022-08-17T04:17:27.679Z,13.60
2022-08-17T04:19:55.395Z,13.60
2022-08-17T04:22:31.794Z,13.60
2022-08-17T04:25:01.734Z,13.70
2022-08-17T04:27:28.595Z,13.70
2022-08-17T04:29:56.220Z,13.70
2022-08-17T04:32:58.576Z,13.80
2022-08-17T04:35:10.376Z,13.70
2022-08-17T04:37:37.215Z,13.70
2022-08-17T04:40:27.159Z,13.80
2022-08-17T04:43:02.788Z,13.80
2022-08-17T04:45:32.409Z,13.90
2022-08-17T04:48:00.840Z,13.90
2022-08-17T04:50:27.900Z,14.00
2022-08-17T04:52:55.000Z,14.00
2022-08-17T04:55:22.286Z,14.10
2022-08-17T04:57:49.102Z,14.10
2022-08-17T05:00:16.143Z,14.10
2022-08-17T05:02:50.673Z,14.00
2022-08-17T05:05:23.708Z,14.10
2022-08-17T05:07:56.217Z,14.10
2022-08-17T05:10:29.467Z,14.10
2022-08-17T05:13:07.540Z,14.20
2022-08-17T05:15:36.257Z,14.30
2022-08-17T05:18:04.450Z,14.50
2022-08-17T05:20:31.918Z,14.60
2022-08-17T05:23:01.687Z,14.70
2022-08-17T05:25:33.296Z,14.80
2022-08-17T05:28:05.567Z,14.90
2022-08-17T05:30:33.285Z,15.00
2022-08-17T05:33:06.948Z,15.10
2022-08-17T05:35:37.448Z,15.20
2022-08-17T05:38:05.860Z,15.40
2022-08-17T05:40:33.245Z,15.50
2022-08-17T05:43:14.179Z,15.70
2022-08-17T05:45:54.625Z,15.90
2022-08-17T05:48:35.399Z,16.00
2022-08-17T05:51:39.720Z,16.10
2022-08-17T05:54:06.684Z,16.30
2022-08-17T05:56:36.524Z,16.60
2022-08-17T05:59:21.426Z,16.80
2022-08-17T06:02:25.776Z,16.90
2022-08-17T06:04:52.583Z,17.20
2022-08-17T06:07:34.411Z,17.30
2022-08-17T06:10:16.431Z,17.60
2022-08-17T06:13:12.791Z,17.70
2022-08-17T06:15:42.411Z,17.90
2022-08-17T06:18:12.152Z,18.00
2022-08-17T06:21:12.503Z,18.00
2022-08-17T06:23:50.747Z,18.00
2022-08-17T06:26:27.503Z,18.00
2022-08-17T06:29:29.918Z,18.10
2022-08-17T06:31:57.738Z,18.10
2022-08-17T06:34:24.680Z,18.20
2022-08-17T06:37:01.773Z,18.30
2022-08-17T06:39:47.886Z,18.50
2022-08-17T06:43:04.045Z,18.70
2022-08-17T06:45:56.152Z,18.90
2022-08-17T06:48:36.101Z,19.00
2022-08-17T06:51:25.967Z,19.10
2022-08-17T06:54:05.451Z,19.10
2022-08-17T06:56:53.248Z,19.20
2022-08-17T06:59:53.222Z,19.30
2022-08-17T07:02:29.103Z,19.40
2022-08-17T07:05:09.836Z,19.60
2022-08-17T07:07:58.057Z,19.70
2022-08-17T07:10:27.604Z,19.90
2022-08-17T07:12:58.217Z,20.10
2022-08-17T07:15:42.383Z,20.40
2022-08-17T07:18:10.374Z,20.50
2022-08-17T07:20:42.977Z,20.60
2022-08-17T07:23:19.124Z,20.90
2022-08-17T07:25:45.995Z,21.10
2022-08-17T07:28:13.062Z,21.50
2022-08-17T07:30:49.368Z,21.80
2022-08-17T07:33:20.331Z,23.00
2022-08-17T07:35:48.462Z,25.10
2022-08-17T07:38:33.662Z,27.30
2022-08-17T07:41:07.314Z,29.30
2022-08-17T07:43:41.473Z,31.30
2022-08-17T07:46:33.637Z,33.10
2022-08-17T07:49:03.526Z,34.50
2022-08-17T07:51:42.382Z,36.00
2022-08-17T07:54:15.486Z,37.00
2022-08-17T07:57:03.439Z,37.80
2022-08-17T07:59:36.477Z,38.20
2022-08-17T08:02:35.640Z,38.80
2022-08-17T08:05:32.895Z,38.80
2022-08-17T08:08:17.878Z,39.30
2022-08-17T08:10:56.708Z,39.70
2022-08-17T08:13:30.248Z,40.00
2022-08-17T08:16:20.733Z,40.40
2022-08-17T08:18:56.845Z,41.60
2022-08-17T08:21:59.110Z,42.30
2022-08-17T08:24:59.129Z,41.30
2022-08-17T08:27:33.577Z,41.60
2022-08-17T08:30:08.094Z,40.70
2022-08-17T08:33:07.628Z,40.80
2022-08-17T08:35:41.799Z,41.10
2022-08-17T08:38:37.153Z,41.90
2022-08-17T08:41:33.356Z,42.60
2022-08-17T08:45:00.139Z,43.60
2022-08-17T08:48:05.163Z,44.20
2022-08-17T08:50:44.431Z,43.60
2022-08-17T08:53:26.257Z,43.80
2022-08-17T08:56:00.648Z,44.40
2022-08-17T08:58:54.856Z,44.30
2022-08-17T09:01:35.618Z,44.40
2022-08-17T09:04:44.933Z,44.10
2022-08-17T09:08:00.007Z,44.00
2022-08-17T09:10:49.952Z,43.50
2022-08-17T09:13:30.791Z,44.20
2022-08-17T09:16:09.211Z,44.90
2022-08-17T09:18:59.955Z,45.50
2022-08-17T09:21:55.622Z,45.20
2022-08-17T09:24:33.280Z,45.00
2022-08-17T09:27:18.496Z,45.40
2022-08-17T09:29:51.695Z,45.70
2022-08-17T09:32:28.639Z,45.40
2022-08-17T09:35:05.093Z,45.80
2022-08-17T09:37:57.108Z,46.70
2022-08-17T09:40:26.726Z,46.40
2022-08-17T09:43:04.732Z,45.50
2022-08-17T09:45:42.821Z,46.10
2022-08-17T09:49:24.610Z,45.50
2022-08-17T09:52:01.110Z,45.70
2022-08-17T09:54:39.241Z,45.70
2022-08-17T09:57:30.400Z,45.00
2022-08-17T10:00:01.323Z,44.50
2022-08-17T10:02:37.048Z,43.30
2022-08-17T10:05:13.806Z,43.30
2022-08-17T10:07:55.985Z,43.30
2022-08-17T10:10:29.794Z,42.80
2022-08-17T10:13:31.492Z,41.90
2022-08-17T10:16:01.076Z,41.60
2022-08-17T10:18:53.068Z,41.50
2022-08-17T10:21:39.882Z,41.80
2022-08-17T10:24:38.894Z,42.40
2022-08-17T10:27:16.171Z,42.00
2022-08-17T10:29:53.629Z,43.40
2022-08-17T10:32:49.843Z,43.60
2022-08-17T10:35:35.472Z,45.30
2022-08-17T10:38:40.949Z,45.40
2022-08-17T10:41:13.962Z,45.10
2022-08-17T10:43:58.895Z,44.00
2022-08-17T10:47:16.894Z,43.40
2022-08-17T10:49:54.010Z,44.10
2022-08-17T10:52:26.328Z,44.40
2022-08-17T10:54:58.535Z,43.40
2022-08-17T10:57:34.751Z,42.30
2022-08-17T11:00:02.651Z,41.50
2022-08-17T11:02:49.474Z,41.10
2022-08-17T11:05:52.334Z,41.10
2022-08-17T11:08:49.483Z,41.00
2022-08-17T11:11:40.025Z,40.70
2022-08-17T11:14:25.516Z,40.40
2022-08-17T11:16:58.262Z,40.10
2022-08-17T11:19:41.612Z,39.60
2022-08-17T11:22:33.509Z,39.40
2022-08-17T11:25:36.223Z,40.30
2022-08-17T11:28:26.269Z,40.40
2022-08-17T11:30:57.223Z,39.60
2022-08-17T11:33:34.007Z,38.80
2022-08-17T11:36:15.905Z,38.00
2022-08-17T11:38:57.950Z,37.40
2022-08-17T11:41:35.271Z,37.60
2022-08-17T11:44:20.580Z,37.40
2022-08-17T11:47:27.865Z,37.00
2022-08-17T11:50:35.471Z,36.70
2022-08-17T11:53:03.225Z,36.40
2022-08-17T11:55:40.511Z,36.40
2022-08-17T11:58:45.337Z,36.10
2022-08-17T12:01:33.674Z,35.70
2022-08-17T12:04:30.212Z,35.20
2022-08-17T12:07:23.173Z,34.90
2022-08-17T12:09:51.854Z,34.90
2022-08-17T12:12:33.294Z,35.00
2022-08-17T12:15:16.948Z,35.00
2022-08-17T12:17:56.746Z,35.00
2022-08-17T12:20:39.613Z,35.70
2022-08-17T12:23:13.991Z,35.90
2022-08-17T12:25:47.653Z,35.60
2022-08-17T12:28:28.528Z,35.50
2022-08-17T12:31:01.958Z,35.50
2022-08-17T12:33:29.165Z,35.80
2022-08-17T12:36:06.324Z,36.00
2022-08-17T12:38:36.154Z,36.50
2022-08-17T12:41:26.065Z,36.60
2022-08-17T12:44:02.282Z,36.40
2022-08-17T12:46:44.799Z,35.90
2022-08-17T12:49:16.103Z,35.00
2022-08-17T12:51:45.792Z,34.80
2022-08-17T12:54:26.390Z,34.70
2022-08-17T12:56:53.760Z,34.40
2022-08-17T12:59:29.943Z,34.20
2022-08-17T13:01:57.800Z,34.00
2022-08-17T13:04:26.496Z,33.80
2022-08-17T13:06:59.734Z,33.50
2022-08-17T13:09:36.082Z,33.10
2022-08-17T13:12:07.880Z,33.00
2022-08-17T13:14:35.416Z,32.60
2022-08-17T13:17:09.718Z,32.40
2022-08-17T13:19:49.479Z,32.30
2022-08-17T13:22:18.406Z,32.10
2022-08-17T13:24:56.584Z,32.00
2022-08-17T13:27:26.486Z,31.80
2022-08-17T13:29:59.652Z,31.80
2022-08-17T13:32:47.263Z,31.60
2022-08-17T13:35:40.993Z,31.50
2022-08-17T13:38:37.524Z,31.40
2022-08-17T13:41:07.532Z,31.20
2022-08-17T13:43:45.059Z,31.10
2022-08-17T13:46:25.233Z,31.00
2022-08-17T13:49:09.937Z,30.80
2022-08-17T13:51:43.903Z,30.80
2022-08-17T13:54:22.626Z,30.70
2022-08-17T13:57:00.303Z,30.90
2022-08-17T13:59:53.622Z,31.10
2022-08-17T14:02:20.824Z,31.40
2022-08-17T14:04:49.234Z,31.70
2022-08-17T14:07:16.755Z,31.90
2022-08-17T14:10:14.881Z,32.10
2022-08-17T14:12:44.936Z,32.30
2022-08-17T14:15:15.056Z,32.20
2022-08-17T14:17:42.083Z,32.10
2022-08-17T14:20:12.151Z,31.70
2022-08-17T14:22:43.298Z,31.30
2022-08-17T14:25:13.217Z,31.10
2022-08-17T14:27:47.121Z,30.70
2022-08-17T14:30:28.973Z,30.30
2022-08-17T14:32:58.176Z,30.00
2022-08-17T14:35:27.524Z,29.70
2022-08-17T14:37:54.630Z,29.50
2022-08-17T14:40:24.959Z,29.40
2022-08-17T14:42:53.731Z,29.60
2022-08-17T14:45:27.028Z,29.60
2022-08-17T14:48:01.763Z,29.70
2022-08-17T14:50:28.588Z,29.60
2022-08-17T14:52:59.165Z,29.80
2022-08-17T14:55:28.411Z,29.70
2022-08-17T14:57:55.246Z,29.70
2022-08-17T15:00:22.673Z,29.70
2022-08-17T15:02:55.161Z,29.70
2022-08-17T15:05:24.994Z,29.80
2022-08-17T15:07:53.549Z,29.90
2022-08-17T15:10:20.697Z,30.00
2022-08-17T15:12:47.901Z,30.20
2022-08-17T15:15:17.158Z,30.00
2022-08-17T15:17:54.721Z,29.80
2022-08-17T15:20:28.143Z,29.70
2022-08-17T15:22:57.286Z,29.70
2022-08-17T15:25:27.518Z,29.70
2022-08-17T15:27:55.946Z,29.60
2022-08-17T15:30:23.683Z,29.80
2022-08-17T15:32:55.102Z,29.80
2022-08-17T15:35:27.929Z,29.80
2022-08-17T15:38:11.542Z,29.90
2022-08-17T15:40:42.560Z,29.90
2022-08-17T15:43:12.451Z,29.80
2022-08-17T15:45:40.032Z,29.70
2022-08-17T15:48:07.070Z,29.90
2022-08-17T15:50:34.092Z,29.90
2022-08-17T15:53:02.329Z,29.90
2022-08-17T15:55:31.229Z,29.80
2022-08-17T15:57:58.481Z,29.80
2022-08-17T16:00:35.462Z,29.70
2022-08-17T16:03:59.342Z,29.60
2022-08-17T16:06:07.851Z,29.50
2022-08-17T16:08:38.389Z,29.50
2022-08-17T16:11:05.608Z,29.40
2022-08-17T16:13:32.879Z,29.40
2022-08-17T16:15:59.810Z,29.30
2022-08-17T16:18:31.437Z,29.20
2022-08-17T16:21:20.130Z,29.20
2022-08-17T16:23:49.450Z,29.30
2022-08-17T16:26:16.524Z,29.20
2022-08-17T16:28:43.415Z,29.30
2022-08-17T16:31:10.910Z,29.30
2022-08-17T16:33:39.624Z,29.30
2022-08-17T16:36:10.313Z,29.40
2022-08-17T16:38:38.623Z,29.30
2022-08-17T16:41:06.497Z,29.20
2022-08-17T16:43:34.571Z,29.20
2022-08-17T16:46:02.053Z,29.20
2022-08-17T16:48:29.751Z,29.20
2022-08-17T16:51:03.223Z,29.10
2022-08-17T16:53:31.686Z,29.00
2022-08-17T16:55:58.693Z,29.00
2022-08-17T16:58:25.659Z,28.90
2022-08-17T17:00:52.829Z,28.80
2022-08-17T17:03:25.807Z,28.80
2022-08-17T17:06:16.628Z,28.70
2022-08-17T17:09:00.762Z,28.60
2022-08-17T17:11:40.486Z,28.50
2022-08-17T17:14:16.998Z,28.40
2022-08-17T17:16:49.409Z,28.30
2022-08-17T17:19:37.719Z,28.20
2022-08-17T17:22:16.492Z,28.10
2022-08-17T17:25:08.337Z,28.10
2022-08-17T17:27:50.475Z,28.00
2022-08-17T17:30:27.664Z,27.90
2022-08-17T17:33:17.514Z,27.70
2022-08-17T17:36:00.213Z,27.60
2022-08-17T17:38:34.294Z,27.40
2022-08-17T17:41:25.323Z,27.30
2022-08-17T17:44:01.917Z,27.20
2022-08-17T17:46:38.005Z,27.00
2022-08-17T17:49:06.149Z,26.90
2022-08-17T17:52:08.026Z,26.80
2022-08-17T17:54:47.966Z,26.70
2022-08-17T17:57:38.274Z,26.50
2022-08-17T18:00:13.008Z,26.40
2022-08-17T18:03:14.575Z,26.30
2022-08-17T18:06:06.366Z,26.30
2022-08-17T18:09:02.050Z,26.10
2022-08-17T18:11:46.148Z,26.00
2022-08-17T18:14:18.461Z,25.80
2022-08-17T18:16:46.599Z,25.70
2022-08-17T18:19:21.989Z,25.50
2022-08-17T18:21:54.831Z,25.30
2022-08-17T18:24:39.909Z,25.20
2022-08-17T18:27:32.277Z,25.00
2022-08-17T18:30:21.526Z,24.80
2022-08-17T18:32:48.758Z,24.70
2022-08-17T18:35:18.620Z,24.50
2022-08-17T18:37:49.000Z,24.20
2022-08-17T18:40:19.597Z,24.00
2022-08-17T18:43:06.070Z,23.80
2022-08-17T18:45:49.658Z,23.70
2022-08-17T18:48:27.763Z,23.50
2022-08-17T18:50:59.054Z,23.30
2022-08-17T18:53:36.508Z,23.20
2022-08-17T18:56:27.220Z,23.00
2022-08-17T18:59:04.915Z,22.90
2022-08-17T19:01:59.282Z,22.80
2022-08-17T19:04:37.509Z,22.70
2022-08-17T19:07:26.864Z,22.60
2022-08-17T19:10:25.519Z,22.50
2022-08-17T19:13:15.643Z,22.50
2022-08-17T19:16:22.886Z,22.40
2022-08-17T19:19:12.583Z,22.40
2022-08-17T19:21:54.405Z,22.30
2022-08-17T19:24:26.639Z,22.10
2022-08-17T19:27:11.418Z,22.00
2022-08-17T19:29:46.816Z,21.90
2022-08-17T19:32:27.686Z,21.90
2022-08-17T19:34:56.184Z,21.80
2022-08-17T19:37:42.047Z,21.70
2022-08-17T19:40:52.863Z,21.60
2022-08-17T19:43:31.202Z,21.70
2022-08-17T19:46:30.313Z,21.80
2022-08-17T19:49:11.637Z,21.80
2022-08-17T19:52:10.858Z,22.00
2022-08-17T19:54:47.347Z,22.00
2022-08-17T19:58:08.668Z,22.00
2022-08-17T20:00:47.008Z,21.90
2022-08-17T20:03:35.400Z,21.80
2022-08-17T20:06:12.892Z,21.80
2022-08-17T20:09:14.988Z,21.80
2022-08-17T20:11:57.629Z,21.80
2022-08-17T20:14:35.758Z,21.80
2022-08-17T20:17:06.043Z,21.80
2022-08-17T20:19:41.118Z,21.80
2022-08-17T20:22:49.682Z,21.70
2022-08-17T20:25:44.683Z,21.70
2022-08-17T20:28:24.861Z,21.70
2022-08-17T20:30:52.592Z,21.60
2022-08-17T20:33:25.854Z,21.50
2022-08-17T20:36:04.397Z,21.40
2022-08-17T20:38:48.724Z,21.30
2022-08-17T20:41:22.459Z,21.30
2022-08-17T20:43:59.011Z,21.20
2022-08-17T20:46:33.290Z,21.20
2022-08-17T20:49:09.193Z,21.20
2022-08-17T20:52:28.841Z,21.30
2022-08-17T20:54:59.884Z,21.30
2022-08-17T20:57:32.891Z,21.30
2022-08-17T21:00:17.552Z,21.20
2022-08-17T21:02:49.864Z,21.20
2022-08-17T21:05:53.423Z,21.20
2022-08-17T21:08:53.229Z,21.20
2022-08-17T21:12:02.239Z,21.10
2022-08-17T21:14:52.193Z,21.10
2022-08-17T21:17:29.910Z,21.10
2022-08-17T21:20:22.059Z,21.00
2022-08-17T21:22:53.384Z,21.00
2022-08-17T21:25:55.961Z,20.90
2022-08-17T21:29:00.442Z,20.90
2022-08-17T21:31:35.341Z,20.90
2022-08-17T21:34:21.149Z,20.90
2022-08-17T21:36:49.013Z,20.90
2022-08-17T21:39:23.289Z,20.80
2022-08-17T21:41:57.307Z,20.80
2022-08-17T21:44:32.343Z,20.70
2022-08-17T21:47:28.212Z,20.70
2022-08-17T21:49:56.492Z,20.60
2022-08-17T21:52:26.986Z,20.50
2022-08-17T21:54:58.445Z,20.40
2022-08-17T21:57:28.369Z,20.30
2022-08-17T22:00:01.721Z,20.20
2022-08-17T22:02:36.086Z,20.20
2022-08-17T22:05:13.318Z,20.20
2022-08-17T22:07:42.603Z,20.20
2022-08-17T22:10:27.816Z,20.20
2022-08-17T22:13:16.870Z,20.30
2022-08-17T22:15:51.304Z,20.30
2022-08-17T22:18:26.881Z,20.30
2022-08-17T22:20:57.023Z,20.20
2022-08-17T22:23:48.003Z,20.20
2022-08-17T22:26:17.020Z,20.20
2022-08-17T22:28:52.324Z,20.20
2022-08-17T22:31:22.894Z,20.20
2022-08-17T22:34:02.009Z,20.20
2022-08-17T22:36:37.212Z,20.10
2022-08-17T22:39:08.323Z,20.00
2022-08-17T22:41:51.938Z,20.00
2022-08-17T22:44:37.840Z,19.90
2022-08-17T22:47:24.673Z,19.90
2022-08-17T22:49:58.835Z,19.90
2022-08-17T22:52:57.848Z,19.80
2022-08-17T22:55:44.406Z,19.80
2022-08-17T22:58:33.296Z,19.70
2022-08-17T23:01:26.123Z,19.70
2022-08-17T23:04:05.990Z,19.60
2022-08-17T23:06:35.168Z,19.60
2022-08-17T23:09:04.281Z,19.60
2022-08-17T23:11:49.380Z,19.60
2022-08-17T23:14:21.141Z,19.50
2022-08-17T23:16:50.372Z,19.50
2022-08-17T23:19:21.450Z,19.40
2022-08-17T23:21:52.571Z,19.40
2022-08-17T23:24:30.790Z,19.40
2022-08-17T23:26:59.022Z,19.40
2022-08-17T23:29:29.417Z,19.40
2022-08-17T23:31:59.834Z,19.40
2022-08-17T23:34:28.080Z,19.40
2022-08-17T23:36:55.885Z,19.40
2022-08-17T23:39:27.470Z,19.30
2022-08-17T23:42:00.214Z,19.30
2022-08-17T23:44:28.400Z,19.30
2022-08-17T23:46:55.273Z,19.30
2022-08-17T23:49:23.481Z,19.30
2022-08-17T23:51:50.391Z,19.20
2022-08-17T23:54:23.238Z,19.20
2022-08-17T23:56:50.628Z,19.30
2022-08-17T23:59:20.147Z,19.20
